Ever Lunar — BKKF — position and weather

sailwx.info

Track history (hours):
 
Tides and Currents Weather Stations Pressure Air Temp Water Temp Dewpoint Dewpoint Depression Visibility Wind Speed Wind Dir Waves Ship Positions

Ever Lunar

Last reported at 2018-Jul-10 14:58 UTC. Time now 2018-Jul-21 21:08 UTC.
Position N 34°31' W 128°38'.
Warning: this ship's position is 11 days out of date.

Length 335 m; draft 11.3 m.

Type: Cargo ship. MMSI: 416497000.

Date/timePositionNaut miles runAvg speedWind from/ knotsBaromVisibWave heightAir tempDewpointWater temp
2018-Jul-10 14:58N 34°31' W 128°38'816.3
2018-Jul-10 14:30N 34°26' W 128°31'816.2
2018-Jul-10 14:00N 34°21' W 128°23'816.3
2018-Jul-10 13:30N 34°17' W 128°15'916.5
2018-Jul-10 12:58N 34°12' W 128°06'1516.1
2018-Jul-10 12:04N 34°03' W 127°52'115.8
2018-Jul-10 12:00N 34°03' W 127°51'816.0
2018-Jul-10 11:29N 33°58' W 127°43'915.9
2018-Jul-10 10:56N 33°52' W 127°35'916.0
2018-Jul-10 10:21N 33°47' W 127°25'616.1
2018-Jul-10 10:00N 33°44' W 127°20'815.8
2018-Jul-10 09:30N 33°39' W 127°12'815.7
2018-Jul-10 09:00N 33°34' W 127°05'815.6
2018-Jul-10 08:30N 33°30' W 126°57'815.4
2018-Jul-10 08:00N 33°25' W 126°50'815.4
2018-Jul-10 07:30N 33°20' W 126°43'815.3
2018-Jul-10 07:00N 33°16' W 126°35'815.5
2018-Jul-10 06:30N 33°11' W 126°28'815.3
2018-Jul-10 05:59N 33°07' W 126°20'715.5
2018-Jul-10 05:30N 33°02' W 126°13'815.2
2018-Jul-10 05:01N 32°58' W 126°06'815.0
2018-Jul-10 04:30N 32°53' W 125°58'815.2
2018-Jul-10 04:00N 32°48' W 125°51'815.4
2018-Jul-10 03:30N 32°44' W 125°44'815.4
2018-Jul-10 03:00N 32°39' W 125°37'815.6
2018-Jul-10 02:30N 32°34' W 125°29'815.4
2018-Jul-10 02:00N 32°30' W 125°22'815.6
2018-Jul-10 01:30N 32°25' W 125°15'815.5
2018-Jul-10 01:00N 32°20' W 125°07'815.6
2018-Jul-10 00:30N 32°16' W 125°00'815.6
2018-Jul-10 00:00N 32°11' W 124°53'815.4
2018-Jul-09 23:30N 32°06' W 124°45'815.5
2018-Jul-09 23:00N 32°01' W 124°38'815.6
2018-Jul-09 22:30N 31°57' W 124°31'815.5
2018-Jul-09 22:00N 31°52' W 124°24'815.5
2018-Jul-09 21:30N 31°47' W 124°17'815.7
2018-Jul-09 21:00N 31°42' W 124°09'815.6
2018-Jul-09 20:30N 31°37' W 124°02'918.5
2018-Jul-09 20:00N 31°32' W 123°54'1020.2
2018-Jul-09 19:30N 31°26' W 123°44'1020.3
2018-Jul-09 19:00N 31°19' W 123°35'1020.4
2018-Jul-09 18:31N 31°13' W 123°26'918.7
2018-Jul-09 18:01N 31°07' W 123°17'815.8
2018-Jul-09 17:31N 31°02' W 123°10'815.8
2018-Jul-09 17:00N 30°57' W 123°03'815.8
2018-Jul-09 16:30N 30°52' W 122°56'815.7
2018-Jul-09 16:00N 30°47' W 122°48'815.6
2018-Jul-09 15:30N 30°42' W 122°41'815.5
2018-Jul-09 15:00N 30°37' W 122°35'815.5
2018-Jul-09 14:30N 30°33' W 122°27'815.6
2018-Jul-09 14:00N 30°28' W 122°20'815.6
2018-Jul-09 13:30N 30°23' W 122°13'815.8
2018-Jul-09 13:00N 30°18' W 122°06'815.9
2018-Jul-09 12:30N 30°13' W 121°59'815.6
2018-Jul-09 12:00N 30°08' W 121°52'815.6
2018-Jul-09 11:30N 30°03' W 121°45'815.6
2018-Jul-09 11:00N 29°58' W 121°38'815.7
2018-Jul-09 10:31N 29°54' W 121°31'815.4
2018-Jul-09 10:00N 29°49' W 121°24'815.5
2018-Jul-09 09:30N 29°44' W 121°17'815.6
2018-Jul-09 09:01N 29°39' W 121°10'815.7
2018-Jul-09 08:30N 29°35' W 121°02'815.8
2018-Jul-09 08:00N 29°30' W 120°55'816.0
2018-Jul-09 07:30N 29°25' W 120°48'816.2
2018-Jul-09 07:00N 29°20' W 120°41'816.1
2018-Jul-09 06:30N 29°15' W 120°33'816.2
2018-Jul-09 06:00N 29°10' W 120°26'816.2
2018-Jul-09 05:30N 29°05' W 120°19'816.3
2018-Jul-09 05:00N 28°60' W 120°11'816.1
2018-Jul-09 04:30N 28°55' W 120°04'816.1
2018-Jul-09 04:00N 28°50' W 119°57'816.1
2018-Jul-09 03:30N 28°45' W 119°50'815.9
2018-Jul-09 03:00N 28°40' W 119°43'816.0
2018-Jul-09 02:30N 28°35' W 119°35'815.9
2018-Jul-09 02:00N 28°30' W 119°28'816.3
2018-Jul-09 01:29N 28°25' W 119°21'816.5
2018-Jul-09 01:00N 28°20' W 119°14'816.4
2018-Jul-09 00:30N 28°15' W 119°06'816.4
2018-Jul-09 00:00N 28°10' W 118°59'816.3
2018-Jul-08 23:30N 28°05' W 118°51'816.3
2018-Jul-08 22:59N 27°60' W 118°44'1316.3
2018-Jul-08 22:10N 27°51' W 118°32'316.5
2018-Jul-08 22:00N 27°50' W 118°30'1316.4
2018-Jul-08 21:13N 27°42' W 118°19'616.5
2018-Jul-08 20:52N 27°38' W 118°13'616.3
2018-Jul-08 20:30N 27°35' W 118°08'2716.4
2018-Jul-08 18:52N 27°18' W 117°44'616.0
2018-Jul-08 18:30N 27°15' W 117°39'916.1
2018-Jul-08 17:56N 27°09' W 117°31'716.1
2018-Jul-08 17:29N 27°05' W 117°24'1215.9
2018-Jul-08 16:46N 26°58' W 117°14'415.9
2018-Jul-08 16:29N 26°55' W 117°10'816.0
2018-Jul-08 16:00N 26°50' W 117°03'816.3
2018-Jul-08 15:30N 26°45' W 116°56'916.1
2018-Jul-08 14:58N 26°39' W 116°49'  
2018-Jul-01 17:42N 09°11' W 079°52'2 7.3
2018-Jul-01 17:26N 09°12' W 079°54'3 6.8
2018-Jul-01 17:00N 09°14' W 079°55'2 2.7
2018-Jul-01 16:23N 09°15' W 079°54'0 0.0
2018-Jul-01 15:53N 09°15' W 079°54'0 0.0
2018-Jul-01 13:35N 09°15' W 079°54'0 0.0
2018-Jul-01 13:17N 09°15' W 079°54'0 0.1
2018-Jul-01 12:57N 09°15' W 079°54'1 1.1
2018-Jul-01 12:30N 09°16' W 079°55'0 0.9
2018-Jul-01 12:00N 09°16' W 079°55'0 0.5
2018-Jul-01 11:30N 09°16' W 079°55'0 0.0
2018-Jul-01 11:00N 09°16' W 079°55'0 0.3
2018-Jul-01 10:30N 09°16' W 079°55'0 0.2
2018-Jul-01 09:58N 09°17' W 079°55'0 0.6
2018-Jul-01 09:30N 09°17' W 079°55'0 0.0
2018-Jul-01 09:00N 09°17' W 079°55'0 0.9
2018-Jul-01 08:29N 09°17' W 079°55'3 5.3
2018-Jul-01 08:00N 09°20' W 079°55'3 6.9
2018-Jul-01 07:30N 09°23' W 079°55'4 8.1
2018-Jul-01 07:00N 09°27' W 079°55'3 5.7
2018-Jul-01 06:30N 09°28' W 079°52'2 3.2
2018-Jul-01 06:00N 09°29' W 079°51'0 0.0
2018-Jul-01 05:30N 09°29' W 079°51'0 0.0
2018-Jul-01 05:00N 09°29' W 079°51'0 0.0
2018-Jul-01 04:30N 09°29' W 079°51'0 0.0
2018-Jul-01 03:57N 09°29' W 079°51'0 0.0
2018-Jul-01 03:30N 09°29' W 079°51'0 0.0
2018-Jul-01 03:00N 09°29' W 079°51'0 0.0
2018-Jul-01 02:30N 09°29' W 079°51'0 0.0
2018-Jul-01 02:00N 09°29' W 079°51'0 0.0
2018-Jul-01 01:30N 09°29' W 079°51'0 0.0
2018-Jul-01 01:00N 09°29' W 079°51'0 0.0
2018-Jul-01 00:30N 09°29' W 079°51'0 0.0
2018-Jul-01 00:00N 09°29' W 079°51'0 0.0
2018-Jun-30 23:30N 09°29' W 079°51'0 0.0
2018-Jun-30 23:00N 09°29' W 079°51'0 0.0
2018-Jun-30 22:30N 09°29' W 079°51'0 0.0
2018-Jun-30 22:00N 09°29' W 079°51'0 0.0
2018-Jun-30 21:30N 09°29' W 079°51'0 0.0
2018-Jun-30 21:00N 09°29' W 079°51'0 0.0
2018-Jun-30 20:30N 09°29' W 079°51'0 0.0
2018-Jun-30 20:00N 09°29' W 079°51'0 0.0
2018-Jun-30 19:30N 09°29' W 079°51'0 0.0
2018-Jun-30 19:00N 09°29' W 079°51'0 0.0
2018-Jun-30 18:30N 09°29' W 079°51'0 0.0
2018-Jun-30 18:00N 09°29' W 079°51'0 0.1
2018-Jun-30 17:09N 09°29' W 079°51'0 0.0
2018-Jun-30 17:00N 09°29' W 079°51'0 0.0
2018-Jun-30 16:30N 09°29' W 079°51'0 0.1
2018-Jun-30 16:00N 09°29' W 079°51'0 0.0
2018-Jun-30 15:30N 09°29' W 079°51'0 0.0
2018-Jun-30 15:00N 09°29' W 079°51'  
Track history (hours):
 
Tides and Currents Weather Stations Pressure Air Temp Water Temp Dewpoint Dewpoint Depression Visibility Wind Speed Wind Dir Waves Ship Positions

Ever Lunar

Last reported at 2018-Jul-10 14:58 UTC. Time now 2018-Jul-21 21:08 UTC.
Position N 34°31' W 128°38'.
Warning: this ship's position is 11 days out of date.

Length 335 m; draft 11.3 m.

Type: Cargo ship. MMSI: 416497000.

Date/timePositionNaut miles runAvg speedWind from/ knotsBaromVisibWave heightAir tempDewpointWater temp
2018-Jul-10 14:58N 34°31' W 128°38'816.3
2018-Jul-10 14:30N 34°26' W 128°31'816.2
2018-Jul-10 14:00N 34°21' W 128°23'816.3
2018-Jul-10 13:30N 34°17' W 128°15'916.5
2018-Jul-10 12:58N 34°12' W 128°06'1516.1
2018-Jul-10 12:04N 34°03' W 127°52'115.8
2018-Jul-10 12:00N 34°03' W 127°51'816.0
2018-Jul-10 11:29N 33°58' W 127°43'915.9
2018-Jul-10 10:56N 33°52' W 127°35'916.0
2018-Jul-10 10:21N 33°47' W 127°25'616.1
2018-Jul-10 10:00N 33°44' W 127°20'815.8
2018-Jul-10 09:30N 33°39' W 127°12'815.7
2018-Jul-10 09:00N 33°34' W 127°05'815.6
2018-Jul-10 08:30N 33°30' W 126°57'815.4
2018-Jul-10 08:00N 33°25' W 126°50'815.4
2018-Jul-10 07:30N 33°20' W 126°43'815.3
2018-Jul-10 07:00N 33°16' W 126°35'815.5
2018-Jul-10 06:30N 33°11' W 126°28'815.3
2018-Jul-10 05:59N 33°07' W 126°20'715.5
2018-Jul-10 05:30N 33°02' W 126°13'815.2
2018-Jul-10 05:01N 32°58' W 126°06'815.0
2018-Jul-10 04:30N 32°53' W 125°58'815.2
2018-Jul-10 04:00N 32°48' W 125°51'815.4
2018-Jul-10 03:30N 32°44' W 125°44'815.4
2018-Jul-10 03:00N 32°39' W 125°37'815.6
2018-Jul-10 02:30N 32°34' W 125°29'815.4
2018-Jul-10 02:00N 32°30' W 125°22'815.6
2018-Jul-10 01:30N 32°25' W 125°15'815.5
2018-Jul-10 01:00N 32°20' W 125°07'815.6
2018-Jul-10 00:30N 32°16' W 125°00'815.6
2018-Jul-10 00:00N 32°11' W 124°53'815.4
2018-Jul-09 23:30N 32°06' W 124°45'815.5
2018-Jul-09 23:00N 32°01' W 124°38'815.6
2018-Jul-09 22:30N 31°57' W 124°31'815.5
2018-Jul-09 22:00N 31°52' W 124°24'815.5
2018-Jul-09 21:30N 31°47' W 124°17'815.7
2018-Jul-09 21:00N 31°42' W 124°09'815.6
2018-Jul-09 20:30N 31°37' W 124°02'918.5
2018-Jul-09 20:00N 31°32' W 123°54'1020.2
2018-Jul-09 19:30N 31°26' W 123°44'1020.3
2018-Jul-09 19:00N 31°19' W 123°35'1020.4
2018-Jul-09 18:31N 31°13' W 123°26'918.7
2018-Jul-09 18:01N 31°07' W 123°17'815.8
2018-Jul-09 17:31N 31°02' W 123°10'815.8
2018-Jul-09 17:00N 30°57' W 123°03'815.8
2018-Jul-09 16:30N 30°52' W 122°56'815.7
2018-Jul-09 16:00N 30°47' W 122°48'815.6
2018-Jul-09 15:30N 30°42' W 122°41'815.5
2018-Jul-09 15:00N 30°37' W 122°35'815.5
2018-Jul-09 14:30N 30°33' W 122°27'815.6
2018-Jul-09 14:00N 30°28' W 122°20'815.6
2018-Jul-09 13:30N 30°23' W 122°13'815.8
2018-Jul-09 13:00N 30°18' W 122°06'815.9
2018-Jul-09 12:30N 30°13' W 121°59'815.6
2018-Jul-09 12:00N 30°08' W 121°52'815.6
2018-Jul-09 11:30N 30°03' W 121°45'815.6
2018-Jul-09 11:00N 29°58' W 121°38'815.7
2018-Jul-09 10:31N 29°54' W 121°31'815.4
2018-Jul-09 10:00N 29°49' W 121°24'815.5
2018-Jul-09 09:30N 29°44' W 121°17'815.6
2018-Jul-09 09:01N 29°39' W 121°10'815.7
2018-Jul-09 08:30N 29°35' W 121°02'815.8
2018-Jul-09 08:00N 29°30' W 120°55'816.0
2018-Jul-09 07:30N 29°25' W 120°48'816.2
2018-Jul-09 07:00N 29°20' W 120°41'816.1
2018-Jul-09 06:30N 29°15' W 120°33'816.2
2018-Jul-09 06:00N 29°10' W 120°26'816.2
2018-Jul-09 05:30N 29°05' W 120°19'816.3
2018-Jul-09 05:00N 28°60' W 120°11'816.1
2018-Jul-09 04:30N 28°55' W 120°04'816.1
2018-Jul-09 04:00N 28°50' W 119°57'816.1
2018-Jul-09 03:30N 28°45' W 119°50'815.9
2018-Jul-09 03:00N 28°40' W 119°43'816.0
2018-Jul-09 02:30N 28°35' W 119°35'815.9
2018-Jul-09 02:00N 28°30' W 119°28'816.3
2018-Jul-09 01:29N 28°25' W 119°21'816.5
2018-Jul-09 01:00N 28°20' W 119°14'816.4
2018-Jul-09 00:30N 28°15' W 119°06'816.4
2018-Jul-09 00:00N 28°10' W 118°59'816.3
2018-Jul-08 23:30N 28°05' W 118°51'816.3
2018-Jul-08 22:59N 27°60' W 118°44'1316.3
2018-Jul-08 22:10N 27°51' W 118°32'316.5
2018-Jul-08 22:00N 27°50' W 118°30'1316.4
2018-Jul-08 21:13N 27°42' W 118°19'616.5
2018-Jul-08 20:52N 27°38' W 118°13'616.3
2018-Jul-08 20:30N 27°35' W 118°08'2716.4
2018-Jul-08 18:52N 27°18' W 117°44'616.0
2018-Jul-08 18:30N 27°15' W 117°39'916.1
2018-Jul-08 17:56N 27°09' W 117°31'716.1
2018-Jul-08 17:29N 27°05' W 117°24'1215.9
2018-Jul-08 16:46N 26°58' W 117°14'415.9
2018-Jul-08 16:29N 26°55' W 117°10'816.0
2018-Jul-08 16:00N 26°50' W 117°03'816.3
2018-Jul-08 15:30N 26°45' W 116°56'916.1
2018-Jul-08 14:58N 26°39' W 116°49'  
2018-Jul-01 17:42N 09°11' W 079°52'2 7.3
2018-Jul-01 17:26N 09°12' W 079°54'3 6.8
2018-Jul-01 17:00N 09°14' W 079°55'2 2.7
2018-Jul-01 16:23N 09°15' W 079°54'0 0.0
2018-Jul-01 15:53N 09°15' W 079°54'0 0.0
2018-Jul-01 13:35N 09°15' W 079°54'0 0.0
2018-Jul-01 13:17N 09°15' W 079°54'0 0.1
2018-Jul-01 12:57N 09°15' W 079°54'1 1.1
2018-Jul-01 12:30N 09°16' W 079°55'0 0.9
2018-Jul-01 12:00N 09°16' W 079°55'0 0.5
2018-Jul-01 11:30N 09°16' W 079°55'0 0.0
2018-Jul-01 11:00N 09°16' W 079°55'0 0.3
2018-Jul-01 10:30N 09°16' W 079°55'0 0.2
2018-Jul-01 09:58N 09°17' W 079°55'0 0.6
2018-Jul-01 09:30N 09°17' W 079°55'0 0.0
2018-Jul-01 09:00N 09°17' W 079°55'0 0.9
2018-Jul-01 08:29N 09°17' W 079°55'3 5.3
2018-Jul-01 08:00N 09°20' W 079°55'3 6.9
2018-Jul-01 07:30N 09°23' W 079°55'4 8.1
2018-Jul-01 07:00N 09°27' W 079°55'3 5.7
2018-Jul-01 06:30N 09°28' W 079°52'2 3.2
2018-Jul-01 06:00N 09°29' W 079°51'0 0.0
2018-Jul-01 05:30N 09°29' W 079°51'0 0.0
2018-Jul-01 05:00N 09°29' W 079°51'0 0.0
2018-Jul-01 04:30N 09°29' W 079°51'0 0.0
2018-Jul-01 03:57N 09°29' W 079°51'0 0.0
2018-Jul-01 03:30N 09°29' W 079°51'0 0.0
2018-Jul-01 03:00N 09°29' W 079°51'0 0.0
2018-Jul-01 02:30N 09°29' W 079°51'0 0.0
2018-Jul-01 02:00N 09°29' W 079°51'0 0.0
2018-Jul-01 01:30N 09°29' W 079°51'0 0.0
2018-Jul-01 01:00N 09°29' W 079°51'0 0.0
2018-Jul-01 00:30N 09°29' W 079°51'0 0.0
2018-Jul-01 00:00N 09°29' W 079°51'0 0.0
2018-Jun-30 23:30N 09°29' W 079°51'0 0.0
2018-Jun-30 23:00N 09°29' W 079°51'0 0.0
2018-Jun-30 22:30N 09°29' W 079°51'0 0.0
2018-Jun-30 22:00N 09°29' W 079°51'0 0.0
2018-Jun-30 21:30N 09°29' W 079°51'0 0.0
2018-Jun-30 21:00N 09°29' W 079°51'0 0.0
2018-Jun-30 20:30N 09°29' W 079°51'0 0.0
2018-Jun-30 20:00N 09°29' W 079°51'0 0.0
2018-Jun-30 19:30N 09°29' W 079°51'0 0.0
2018-Jun-30 19:00N 09°29' W 079°51'0 0.0
2018-Jun-30 18:30N 09°29' W 079°51'0 0.0
2018-Jun-30 18:00N 09°29' W 079°51'0 0.1
2018-Jun-30 17:09N 09°29' W 079°51'0 0.0
2018-Jun-30 17:00N 09°29' W 079°51'0 0.0
2018-Jun-30 16:30N 09°29' W 079°51'0 0.1
2018-Jun-30 16:00N 09°29' W 079°51'0 0.0
2018-Jun-30 15:30N 09°29' W 079°51'0 0.0
2018-Jun-30 15:00N 09°29' W 079°51'  

Dump ship's entire track history